Time;durP1;ratioP1;P1;durP2;ratioP2;P2;SDS_P1;SDS_P2;PMS_P1;PMS_P2;Temp;Humidity;BMP_temperature;BMP_pressure;BME280_temperature;BME280_humidity;BME280_pressure;Samples;Min_cycle;Max_cycle;Signal;HPM_P1;HPM_P2
2024/03/15 00:02:35;;;;;;;28.05;18.88;;;;;;;12.63;79.48;100515.16;5005162;28;20042;-79
2024/03/15 00:05:39;;;;;;;27.98;19.20;;;;;;;12.63;79.26;100520.53;5017252;28;20400;-77
2024/03/15 00:08:44;;;;;;;29.02;19.15;;;;;;;12.50;79.08;100519.97;5017163;28;20386;-77
2024/03/15 00:11:50;;;;;;;30.25;18.00;;;;;;;12.78;78.54;100519.97;5017102;28;20046;-76
2024/03/15 00:14:55;;;;;;;25.95;17.55;;;;;;;12.86;77.23;100519.25;5016433;28;20501;-78
2024/03/15 00:18:00;;;;;;;25.40;18.10;;;;;;;12.97;77.36;100516.38;5017020;28;20041;-78
2024/03/15 00:21:04;;;;;;;30.50;18.92;;;;;;;12.78;77.36;100522.66;5016928;28;20389;-78
2024/03/15 00:24:09;;;;;;;26.90;17.90;;;;;;;12.83;77.82;100519.53;5016820;28;20046;-76
2024/03/15 00:27:14;;;;;;;26.92;18.58;;;;;;;12.61;78.49;100522.53;5016783;28;20042;-78
2024/03/15 00:30:18;;;;;;;28.80;19.05;;;;;;;12.54;78.97;100519.53;5016810;28;20038;-79
2024/03/15 00:33:23;;;;;;;33.42;20.50;;;;;;;12.37;80.36;100512.19;5016937;28;20389;-77
2024/03/15 00:36:28;;;;;;;30.15;19.73;;;;;;;12.56;79.18;100516.72;5015653;28;20042;-78
2024/03/15 00:39:32;;;;;;;31.48;20.23;;;;;;;12.56;78.60;100511.34;5004634;28;20038;-78
2024/03/15 00:42:37;;;;;;;27.52;20.00;;;;;;;12.73;78.00;100516.84;5016645;28;20038;-78
2024/03/15 00:45:44;;;;;;;28.92;20.48;;;;;;;12.86;77.62;100521.94;5016680;28;20046;-78
2024/03/15 00:48:49;;;;;;;37.85;23.70;;;;;;;13.10;77.04;100524.16;5016538;28;20473;-80
2024/03/15 00:51:53;;;;;;;53.30;30.25;;;;;;;13.15;76.36;100511.97;5016782;28;20049;-79
2024/03/15 00:54:58;;;;;;;49.80;29.02;;;;;;;13.01;76.42;100515.09;5016538;28;20046;-77
2024/03/15 00:58:03;;;;;;;58.47;32.95;;;;;;;12.75;77.76;100512.16;5016187;28;20050;-78
2024/03/15 01:01:07;;;;;;;55.17;34.40;;;;;;;12.90;77.14;100507.16;5016381;28;20046;-78
2024/03/15 01:04:13;;;;;;;52.20;30.45;;;;;;;12.91;77.35;100503.50;5016637;28;20386;-77
2024/03/15 01:07:20;;;;;;;31.92;20.58;;;;;;;12.66;77.92;100510.34;5028289;28;20045;-77
2024/03/15 01:10:25;;;;;;;35.83;22.52;;;;;;;12.79;77.03;100510.00;5028920;28;20462;-78
2024/03/15 01:13:31;;;;;;;38.75;23.20;;;;;;;12.87;76.33;100510.16;5015954;28;20045;-78
2024/03/15 01:16:36;;;;;;;29.02;19.85;;;;;;;12.98;75.99;100508.16;4993124;28;20046;-77
2024/03/15 01:19:40;;;;;;;26.98;18.10;;;;;;;12.89;75.92;100498.22;5015851;28;20050;-79
2024/03/15 01:22:47;;;;;;;26.13;17.13;;;;;;;12.74;76.64;100496.16;5014961;28;20041;-78
2024/03/15 01:25:51;;;;;;;22.25;15.20;;;;;;;12.59;76.35;100495.72;5015121;28;20054;-79
2024/03/15 01:28:56;;;;;;;24.98;15.75;;;;;;;12.59;76.63;100486.84;5015865;28;20046;-77
2024/03/15 01:32:01;;;;;;;22.63;16.33;;;;;;;12.54;77.04;100489.09;5014839;28;20477;-78
2024/03/15 01:35:07;;;;;;;21.80;16.13;;;;;;;12.51;76.34;100486.69;5015726;28;20038;-78
2024/03/15 01:38:12;;;;;;;22.02;15.45;;;;;;;12.62;76.52;100486.53;5003501;28;20046;-78
2024/03/15 01:41:17;;;;;;;23.58;15.68;;;;;;;12.61;75.98;100485.69;5014722;28;20053;-77
2024/03/15 01:44:21;;;;;;;25.08;15.48;;;;;;;12.31;77.53;100475.94;5015482;28;20053;-77
2024/03/15 01:47:28;;;;;;;25.80;15.95;;;;;;;12.21;77.89;100476.94;5014862;28;20045;-79
2024/03/15 01:50:34;;;;;;;22.65;14.77;;;;;;;12.31;77.13;100478.66;5015142;28;20041;-79
2024/03/15 01:53:39;;;;;;;23.38;15.52;;;;;;;12.20;77.58;100470.69;5015131;28;20045;-77
2024/03/15 01:56:44;;;;;;;22.02;15.82;;;;;;;12.04;78.42;100470.44;5015210;28;20396;-79
2024/03/15 01:59:48;;;;;;;19.77;14.70;;;;;;;11.95;78.56;100465.06;5015127;28;20037;-80
2024/03/15 02:02:52;;;;;;;22.00;15.25;;;;;;;11.84;79.07;100471.41;5015256;28;20049;-77
2024/03/15 02:05:57;;;;;;;18.95;12.85;;;;;;;12.00;78.04;100463.63;5015499;28;20054;-77
2024/03/15 02:09:02;;;;;;;17.80;12.80;;;;;;;11.97;78.11;100463.91;5014164;28;20093;-78
2024/03/15 02:12:06;;;;;;;24.63;14.45;;;;;;;11.96;78.00;100472.97;5015064;28;20046;-78
2024/03/15 02:15:11;;;;;;;18.80;13.02;;;;;;;11.98;78.35;100462.91;5013573;28;20049;-78
2024/03/15 02:18:15;;;;;;;20.40;13.18;;;;;;;11.93;78.10;100462.47;5014192;28;20046;-77
2024/03/15 02:21:19;;;;;;;17.40;12.75;;;;;;;12.01;77.98;100467.16;5014899;28;20037;-78
2024/03/15 02:24:24;;;;;;;21.98;14.65;;;;;;;11.98;77.50;100459.38;5014690;28;20050;-79
2024/03/15 02:27:28;;;;;;;22.40;12.85;;;;;;;11.77;78.26;100450.59;5013613;28;20050;-79
2024/03/15 02:30:32;;;;;;;20.15;13.20;;;;;;;11.75;78.35;100456.94;5014734;28;20389;-79
2024/03/15 02:33:38;;;;;;;19.90;13.85;;;;;;;11.85;78.10;100465.00;5014822;28;20046;-77
2024/03/15 02:36:43;;;;;;;20.13;12.93;;;;;;;11.79;78.23;100465.59;5014309;28;20049;-79
2024/03/15 02:39:48;;;;;;;20.55;14.18;;;;;;;11.75;77.84;100461.50;5014328;28;20054;-78
2024/03/15 02:42:53;;;;;;;21.58;13.77;;;;;;;11.27;79.41;100469.41;5025896;28;20041;-77
2024/03/15 02:45:57;;;;;;;19.80;13.27;;;;;;;11.02;80.14;100467.16;5040827;28;20075;-77
2024/03/15 02:49:03;;;;;;;19.80;11.55;;;;;;;11.26;79.03;100465.00;5045460;28;20473;-77
2024/03/15 02:52:08;;;;;;;16.33;11.88;;;;;;;11.12;78.94;100454.63;5034357;28;20041;-77
2024/03/15 02:55:12;;;;;;;18.98;10.75;;;;;;;10.80;79.14;100470.88;5034237;28;20065;-78
2024/03/15 02:58:19;;;;;;;19.52;12.02;;;;;;;10.87;79.37;100476.56;5033510;28;20063;-79
2024/03/15 03:01:25;;;;;;;15.35;10.00;;;;;;;10.98;78.78;100471.13;5033621;28;20053;-77
2024/03/15 03:04:29;;;;;;;16.65;8.52;;;;;;;10.71;78.22;100455.59;5033954;28;20057;-78
2024/03/15 03:07:34;;;;;;;11.73;8.13;;;;;;;10.60;78.90;100468.22;5033825;28;20052;-78
2024/03/15 03:10:38;;;;;;;12.35;8.00;;;;;;;10.69;78.44;100462.06;5033514;28;20053;-77
2024/03/15 03:13:43;;;;;;;14.32;8.25;;;;;;;10.89;77.54;100462.03;5033337;28;20049;-78
2024/03/15 03:16:47;;;;;;;12.75;7.78;;;;;;;10.91;77.05;100461.91;5033303;28;20049;-78
2024/03/15 03:19:52;;;;;;;10.65;7.35;;;;;;;10.71;77.99;100462.78;5034105;28;20473;-77
2024/03/15 03:22:56;;;;;;;12.18;7.90;;;;;;;11.04;77.27;100458.00;5033717;28;20064;-78
2024/03/15 03:26:01;;;;;;;9.73;6.10;;;;;;;11.33;75.93;100460.78;5033534;28;20503;-78
2024/03/15 03:29:06;;;;;;;10.43;6.93;;;;;;;11.33;75.09;100466.16;5021520;28;20045;-79
2024/03/15 03:32:11;;;;;;;11.55;7.32;;;;;;;11.32;75.49;100461.78;5033788;28;20052;-78
2024/03/15 03:35:15;;;;;;;9.13;6.68;;;;;;;11.34;75.06;100464.31;5034000;28;20068;-78
2024/03/15 03:38:20;;;;;;;10.85;6.68;;;;;;;11.37;75.13;100454.16;5033685;28;20052;-77
2024/03/15 03:41:24;;;;;;;9.65;6.10;;;;;;;11.26;75.17;100466.84;5033562;28;20060;-78
2024/03/15 03:44:29;;;;;;;10.27;6.00;;;;;;;11.25;75.18;100457.09;5033560;28;20361;-78
2024/03/15 03:47:33;;;;;;;13.00;6.15;;;;;;;11.00;75.13;100467.31;5033597;28;20045;-79
2024/03/15 03:50:37;;;;;;;8.45;5.80;;;;;;;10.54;76.94;100469.63;5028948;28;20045;-78
2024/03/15 03:53:42;;;;;;;9.98;5.22;;;;;;;10.70;76.44;100469.13;5013603;28;20122;-78
2024/03/15 03:56:47;;;;;;;9.10;5.72;;;;;;;10.79;76.10;100466.47;5013777;28;20504;-78
2024/03/15 03:59:52;;;;;;;8.63;5.57;;;;;;;10.95;75.32;100469.56;5013562;28;20053;-77
2024/03/15 04:02:57;;;;;;;9.85;5.50;;;;;;;10.99;75.05;100473.66;5013992;28;20492;-79
2024/03/15 04:06:05;;;;;;;10.93;5.95;;;;;;;10.87;75.23;100469.38;5013480;28;20045;-78
2024/03/15 04:09:09;;;;;;;12.95;5.68;;;;;;;10.92;74.91;100475.19;5013607;28;20057;-78
2024/03/15 04:12:14;;;;;;;11.70;5.35;;;;;;;10.98;74.57;100476.50;5016814;28;20045;-77
2024/03/15 04:15:19;;;;;;;7.50;4.75;;;;;;;10.86;75.53;100482.94;5015785;28;20053;-78
2024/03/15 04:18:23;;;;;;;11.40;4.75;;;;;;;10.89;74.71;100479.97;5017133;28;20073;-78
2024/03/15 04:21:28;;;;;;;8.73;4.95;;;;;;;10.77;75.33;100481.03;5017208;28;20489;-78
2024/03/15 04:24:35;;;;;;;8.55;4.70;;;;;;;10.84;75.20;100487.56;5023228;28;20057;-78
2024/03/15 04:27:40;;;;;;;10.00;5.45;;;;;;;10.87;74.94;100496.22;5033400;28;20052;-78
2024/03/15 04:30:45;;;;;;;8.85;5.22;;;;;;;10.80;74.97;100487.00;5019381;28;20053;-77
2024/03/15 04:33:49;;;;;;;9.93;5.45;;;;;;;10.58;75.88;100484.47;5016162;28;20420;-78
2024/03/15 04:36:54;;;;;;;8.07;4.97;;;;;;;10.67;75.04;100488.16;5016270;28;20500;-78
2024/03/15 04:39:59;;;;;;;10.90;4.63;;;;;;;10.86;74.85;100482.94;5016665;28;20061;-78
2024/03/15 04:43:04;;;;;;;10.45;4.93;;;;;;;10.56;75.38;100482.88;5016652;28;20077;-77
2024/03/15 04:46:09;;;;;;;9.27;4.50;;;;;;;10.96;74.57;100490.03;5015835;28;20053;-79
2024/03/15 04:49:14;;;;;;;9.90;4.47;;;;;;;10.80;74.44;100486.13;5016210;28;20061;-78
2024/03/15 04:52:18;;;;;;;9.35;4.20;;;;;;;10.47;75.26;100487.19;5016482;28;20053;-77
2024/03/15 04:55:22;;;;;;;9.40;4.25;;;;;;;10.27;75.44;100493.44;5015325;28;20049;-77
2024/03/15 04:58:30;;;;;;;13.65;3.83;;;;;;;10.23;75.87;100489.28;5016381;28;20049;-79
2024/03/15 05:01:35;;;;;;;8.45;4.55;;;;;;;10.56;74.54;100494.47;4996791;28;20386;-77
2024/03/15 05:04:41;;;;;;;7.85;3.70;;;;;;;10.45;75.44;100491.84;4996579;28;20061;-78
2024/03/15 05:07:46;;;;;;;7.07;3.75;;;;;;;10.39;75.44;100495.06;4995377;28;20049;-79
2024/03/15 05:10:51;;;;;;;7.10;3.80;;;;;;;10.34;75.16;100498.13;4996134;28;20049;-78
2024/03/15 05:13:56;;;;;;;8.57;4.03;;;;;;;10.32;75.36;100493.88;4995973;28;20061;-78
2024/03/15 05:17:02;;;;;;;7.50;3.78;;;;;;;10.39;75.23;100495.06;5000637;28;20040;-78
2024/03/15 05:20:09;;;;;;;6.82;4.32;;;;;;;10.74;74.41;100492.88;5023192;28;20049;-78
2024/03/15 05:23:14;;;;;;;12.68;4.38;;;;;;;10.77;73.61;100498.00;5035361;28;20045;-78
2024/03/15 05:26:20;;;;;;;7.63;3.78;;;;;;;10.69;74.00;100499.66;5035159;28;20052;-78
2024/03/15 05:29:29;;;;;;;8.05;3.95;;;;;;;10.68;74.02;100497.94;5035544;28;20496;-78
2024/03/15 05:32:34;;;;;;;13.50;3.78;;;;;;;10.75;73.54;100493.75;5035613;28;20052;-77
2024/03/15 05:35:40;;;;;;;7.78;4.07;;;;;;;10.70;74.48;100495.97;5035096;28;20053;-76
2024/03/15 05:38:44;;;;;;;6.95;4.15;;;;;;;10.91;73.70;100496.81;5023210;28;20056;-76
2024/03/15 05:41:49;;;;;;;9.40;3.70;;;;;;;11.02;73.24;100489.50;5034989;28;20057;-76
2024/03/15 05:44:54;;;;;;;7.50;4.13;;;;;;;11.11;72.39;100491.38;5034663;28;20408;-75
2024/03/15 05:47:59;;;;;;;7.72;4.07;;;;;;;11.24;72.22;100492.97;5011795;28;20052;-77
2024/03/15 05:51:04;;;;;;;9.05;4.47;;;;;;;10.92;72.69;100499.34;5035200;28;20377;-78
2024/03/15 05:54:08;;;;;;;8.32;3.60;;;;;;;10.82;73.61;100501.13;5019887;28;20503;-77
2024/03/15 05:57:13;;;;;;;6.97;3.40;;;;;;;11.02;73.04;100502.09;5035119;28;20053;-77
2024/03/15 06:00:21;;;;;;;7.25;3.10;;;;;;;11.30;72.30;100500.53;5035051;28;20068;-77
2024/03/15 06:03:25;;;;;;;5.72;2.97;;;;;;;11.68;70.56;100506.03;5023437;28;20397;-76
2024/03/15 06:06:31;;;;;;;13.52;3.45;;;;;;;11.94;69.55;100511.75;5034787;28;20056;-77
2024/03/15 06:09:38;;;;;;;8.23;3.70;;;;;;;11.85;69.20;100517.97;5028816;28;20048;-77
2024/03/15 06:12:43;;;;;;;9.02;3.75;;;;;;;11.52;70.39;100513.75;5034820;28;20383;-76
2024/03/15 06:15:48;;;;;;;9.43;3.30;;;;;;;12.13;68.03;100511.78;5033990;28;20511;-76
2024/03/15 06:18:53;;;;;;;4.85;2.70;;;;;;;12.36;67.07;100519.44;5034769;28;20052;-77
2024/03/15 06:21:58;;;;;;;6.20;3.13;;;;;;;12.35;66.30;100516.88;5034263;28;20057;-78
2024/03/15 06:25:03;;;;;;;8.88;3.20;;;;;;;12.44;66.27;100536.72;5008646;28;20053;-76
2024/03/15 06:28:09;;;;;;;6.90;3.28;;;;;;;12.92;65.46;100532.13;5012971;28;20045;-78
2024/03/15 06:31:14;;;;;;;7.85;2.97;;;;;;;12.77;65.60;100530.88;5031849;28;20518;-79
2024/03/15 06:34:23;;;;;;;13.57;3.67;;;;;;;12.46;66.83;100522.13;5026832;28;20053;-81
2024/03/15 06:37:28;;;;;;;13.73;3.85;;;;;;;12.41;67.48;100527.09;5015068;28;20053;-78
2024/03/15 06:44:20;;;;;;;7.78;2.88;;;;;;;12.60;65.71;100527.06;5003029;28;20061;-77
2024/03/15 06:47:28;;;;;;;5.40;2.60;;;;;;;13.06;64.90;100531.69;5001779;28;20061;-78
2024/03/15 06:53:57;;;;;;;13.57;6.82;;;;;;;13.77;62.65;100540.06;5003461;28;20042;-77
2024/03/15 06:57:02;;;;;;;13.00;3.75;;;;;;;13.51;63.11;100543.44;5001752;28;20049;-78
2024/03/15 07:00:10;;;;;;;11.02;4.20;;;;;;;13.58;63.38;100549.06;5018542;28;20048;-78
2024/03/15 07:03:16;;;;;;;8.80;3.83;;;;;;;14.73;60.20;100543.78;4994465;28;20054;-79
2024/03/15 07:06:21;;;;;;;11.80;3.58;;;;;;;14.78;59.36;100549.56;4982646;28;20457;-78
2024/03/15 07:09:25;;;;;;;8.80;3.60;;;;;;;14.52;59.49;100545.94;4994576;28;20065;-79
2024/03/15 07:12:30;;;;;;;9.52;3.65;;;;;;;14.45;60.45;100561.06;4994253;28;20073;-77
2024/03/15 07:15:36;;;;;;;5.93;2.85;;;;;;;14.29;60.80;100558.19;4993732;28;20053;-72
2024/03/15 07:18:40;;;;;;;7.63;2.90;;;;;;;14.71;59.86;100553.91;4994313;28;20049;-71
2024/03/15 07:21:45;;;;;;;24.15;10.98;;;;;;;15.34;58.50;100557.22;4994589;28;20485;-72
2024/03/15 07:24:50;;;;;;;29.00;12.07;;;;;;;16.55;55.06;100554.97;4994494;28;20047;-74
2024/03/15 07:27:57;;;;;;;19.60;8.20;;;;;;;17.19;52.33;100558.66;4994570;28;20043;-78
2024/03/15 07:31:02;;;;;;;19.90;7.82;;;;;;;17.95;50.22;100567.13;4994500;28;20062;-79
2024/03/15 07:34:07;;;;;;;20.80;11.23;;;;;;;17.95;49.65;100561.69;4994516;28;20505;-80
2024/03/15 07:37:13;;;;;;;13.50;7.97;;;;;;;18.25;49.79;100570.88;4994241;28;20042;-78
2024/03/15 07:40:18;;;;;;;9.20;4.40;;;;;;;18.81;48.35;100562.38;4994277;28;20150;-77
2024/03/15 07:43:23;;;;;;;7.13;3.35;;;;;;;19.24;47.33;100563.50;4994210;28;20065;-79
2024/03/15 07:46:28;;;;;;;8.52;3.42;;;;;;;19.44;46.81;100568.25;4998116;28;20126;-77
2024/03/15 07:49:33;;;;;;;6.15;2.70;;;;;;;19.99;45.94;100564.19;4998264;28;20061;-75
2024/03/15 07:52:38;;;;;;;7.32;2.42;;;;;;;20.42;44.64;100568.72;4985746;28;20393;-78
2024/03/15 07:55:42;;;;;;;4.32;2.47;;;;;;;20.75;43.68;100569.06;4997914;28;20050;-78
2024/03/15 07:58:47;;;;;;;5.03;2.70;;;;;;;21.31;43.11;100570.00;4997977;28;20535;-77
2024/03/15 08:01:53;;;;;;;5.20;2.53;;;;;;;22.58;40.03;100563.94;4998306;28;20050;-77
2024/03/15 08:04:58;;;;;;;5.18;1.90;;;;;;;24.40;36.90;100572.19;4997766;28;20386;-77
2024/03/15 08:08:05;;;;;;;8.73;2.30;;;;;;;26.61;32.70;100567.59;4997815;28;20069;-77
2024/03/15 08:11:11;;;;;;;5.38;2.00;;;;;;;28.32;30.09;100577.28;4999254;28;20073;-78
2024/03/15 08:14:16;;;;;;;7.85;2.20;;;;;;;29.28;28.84;100570.03;5000145;28;20505;-77
2024/03/15 08:17:20;;;;;;;6.15;2.00;;;;;;;29.56;28.73;100567.13;5010550;28;20041;-78
2024/03/15 08:20:26;;;;;;;4.72;2.10;;;;;;;28.70;29.44;100575.84;4992925;28;20049;-77
2024/03/15 08:23:31;;;;;;;7.25;2.22;;;;;;;28.06;30.28;100575.09;4997014;28;20049;-79
2024/03/15 08:26:45;;;;;;;5.78;2.50;;;;;;;27.43;31.10;100569.47;4996362;28;20069;-77
2024/03/15 08:29:51;;;;;;;6.20;2.10;;;;;;;27.91;30.44;100583.00;4996670;28;20058;-75
2024/03/15 08:32:56;;;;;;;5.10;2.58;;;;;;;27.55;30.38;100575.00;4996664;28;20054;-74
2024/03/15 08:36:02;;;;;;;5.32;2.85;;;;;;;28.23;29.94;100581.53;4996654;28;20066;-75
2024/03/15 08:39:12;;;;;;;4.55;1.60;;;;;;;28.76;28.73;100581.22;4996528;28;20062;-76
2024/03/15 08:42:17;;;;;;;3.40;1.40;;;;;;;28.70;28.36;100582.22;4992902;28;20072;-77
2024/03/15 08:45:24;;;;;;;4.70;1.27;;;;;;;27.99;28.95;100587.31;5003830;28;20045;-75
2024/03/15 08:48:30;;;;;;;5.65;1.60;;;;;;;26.91;31.05;100592.38;4996278;28;20433;-77
2024/03/15 08:51:35;;;;;;;3.75;1.40;;;;;;;26.31;31.72;100586.84;5006851;28;20057;-79
2024/03/15 08:54:40;;;;;;;4.22;1.42;;;;;;;26.13;32.29;100586.84;5025923;28;20068;-81
2024/03/15 08:57:46;;;;;;;6.15;1.95;;;;;;;25.79;32.43;100587.41;5024370;28;20053;-80
2024/03/15 09:00:51;;;;;;;5.45;1.55;;;;;;;24.64;34.68;100585.13;5003129;28;20048;-80
2024/03/15 09:03:56;;;;;;;3.75;1.42;;;;;;;25.52;33.53;100586.00;5016773;28;20053;-77
2024/03/15 09:07:02;;;;;;;3.00;1.25;;;;;;;25.17;33.60;100585.66;5015629;28;20504;-78
2024/03/15 09:10:16;;;;;;;5.65;1.45;;;;;;;24.06;34.71;100591.72;5015829;28;20045;-76
2024/03/15 09:13:21;;;;;;;2.92;1.00;;;;;;;24.90;33.83;100582.25;5015487;28;20554;-78
2024/03/15 09:16:27;;;;;;;5.93;1.80;;;;;;;24.87;33.52;100579.09;4984134;28;20413;-79
2024/03/15 09:19:31;;;;;;;6.43;2.35;;;;;;;25.47;33.87;100572.94;4995900;28;20054;-78
2024/03/15 09:22:36;;;;;;;5.88;1.80;;;;;;;25.51;34.23;100581.56;4995696;28;20065;-79
2024/03/15 09:25:42;;;;;;;8.68;1.90;;;;;;;25.30;34.15;100571.81;4997030;28;20417;-79
2024/03/15 09:28:49;;;;;;;7.72;1.95;;;;;;;25.33;33.59;100578.75;4999523;28;20053;-79
2024/03/15 09:31:55;;;;;;;6.18;2.33;;;;;;;24.65;34.80;100570.34;4995579;28;20053;-78
2024/03/15 09:35:04;;;;;;;11.02;6.00;;;;;;;24.00;36.36;100576.16;4975602;28;20050;-79
2024/03/15 09:38:09;;;;;;;8.02;2.83;;;;;;;23.67;37.29;100570.75;4975786;28;20092;-79
2024/03/15 09:41:15;;;;;;;6.53;2.35;;;;;;;23.15;37.59;100571.63;4995604;28;20072;-79
2024/03/15 09:44:19;;;;;;;6.30;1.98;;;;;;;22.46;39.61;100560.13;5014676;28;20508;-78
2024/03/15 09:47:25;;;;;;;4.28;1.95;;;;;;;22.76;38.88;100571.59;5014924;28;20061;-78
2024/03/15 09:50:31;;;;;;;4.15;1.95;;;;;;;22.32;40.65;100564.69;5015203;28;20045;-78
2024/03/15 09:53:36;;;;;;;5.47;2.00;;;;;;;22.32;39.69;100556.50;5026626;28;20061;-76
2024/03/15 09:56:44;;;;;;;4.50;2.35;;;;;;;22.62;39.05;100555.13;5029502;28;20053;-78
2024/03/15 09:59:49;;;;;;;8.65;2.25;;;;;;;22.93;37.54;100564.66;5030727;28;20391;-77
2024/03/15 10:02:53;;;;;;;4.38;2.05;;;;;;;22.18;39.59;100549.31;5020475;28;20053;-76
2024/03/15 10:06:01;;;;;;;4.75;2.20;;;;;;;22.43;39.93;100555.06;5014709;28;20065;-77
2024/03/15 10:09:12;;;;;;;5.40;2.22;;;;;;;22.09;41.46;100549.69;5014331;28;20118;-76
2024/03/15 10:12:18;;;;;;;3.92;2.50;;;;;;;22.02;42.45;100549.69;5014791;28;20057;-77
2024/03/15 10:15:23;;;;;;;7.68;3.20;;;;;;;22.10;42.22;100551.38;5028744;28;20053;-76
2024/03/15 10:18:32;;;;;;;6.22;3.53;;;;;;;21.93;40.17;100556.34;5034014;28;20049;-75
2024/03/15 10:21:38;;;;;;;10.85;4.00;;;;;;;21.46;40.86;100548.03;5033892;28;20074;-78
2024/03/15 10:24:42;;;;;;;7.47;3.97;;;;;;;21.33;41.44;100552.38;5015431;28;20057;-78
2024/03/15 10:27:53;;;;;;;7.22;3.30;;;;;;;20.98;40.69;100549.78;5013353;28;20054;-78
2024/03/15 10:30:58;;;;;;;6.95;3.38;;;;;;;20.91;43.22;100546.97;5013916;28;20049;-78
2024/03/15 10:34:04;;;;;;;5.90;3.13;;;;;;;20.89;45.08;100542.75;5012872;28;20053;-79
2024/03/15 10:37:12;;;;;;;9.70;3.42;;;;;;;20.45;46.76;100551.13;5012324;28;20057;-77
2024/03/15 10:40:22;;;;;;;8.98;3.08;;;;;;;20.39;47.77;100543.75;5011857;28;20507;-78
2024/03/15 10:43:28;;;;;;;9.05;3.28;;;;;;;20.58;46.39;100541.22;5014136;28;20386;-79
2024/03/15 10:46:34;;;;;;;5.72;2.70;;;;;;;20.74;45.80;100545.53;5001805;28;20053;-77
2024/03/15 10:49:40;;;;;;;7.88;3.85;;;;;;;21.00;45.37;100551.25;4994227;28;20421;-79
2024/03/15 10:52:48;;;;;;;7.25;3.38;;;;;;;21.07;45.17;100554.91;4994062;28;20065;-79
2024/03/15 10:55:54;;;;;;;7.47;3.17;;;;;;;21.16;43.75;100561.91;4999079;28;20060;-79
2024/03/15 10:59:00;;;;;;;7.18;3.42;;;;;;;21.01;45.00;100552.13;5000890;28;20052;-78
2024/03/15 11:02:09;;;;;;;10.45;3.58;;;;;;;21.23;45.86;100548.34;5011945;28;20057;-79
2024/03/15 11:05:22;;;;;;;7.68;3.47;;;;;;;21.02;45.71;100546.44;5012469;28;20045;-77
2024/03/15 11:08:35;;;;;;;8.82;4.38;;;;;;;20.90;45.98;100539.84;5002347;28;20417;-77
2024/03/15 11:11:40;;;;;;;9.60;4.15;;;;;;;20.97;45.47;100542.59;5013001;28;20049;-79
2024/03/15 11:14:46;;;;;;;7.75;4.10;;;;;;;20.98;44.94;100542.44;5013244;28;20057;-78
2024/03/15 11:18:04;;;;;;;6.57;4.55;;;;;;;21.12;46.02;100536.06;4993903;28;20057;-77
2024/03/15 11:21:20;;;;;;;6.90;4.22;;;;;;;21.02;45.31;100542.88;4994490;28;20057;-77
2024/03/15 11:24:27;;;;;;;8.63;4.75;;;;;;;20.91;45.09;100536.03;5008037;28;20057;-78
2024/03/15 11:27:32;;;;;;;7.88;4.35;;;;;;;21.00;44.59;100537.63;4995662;28;20052;-78
2024/03/15 11:30:38;;;;;;;6.50;3.75;;;;;;;21.52;43.13;100548.09;5022029;28;20728;-79
2024/03/15 11:33:43;;;;;;;8.30;3.63;;;;;;;21.49;42.58;100542.19;5033916;28;20503;-77
2024/03/15 11:36:47;;;;;;;6.53;3.65;;;;;;;21.52;41.84;100537.19;5033830;28;20041;-77
2024/03/15 11:39:59;;;;;;;7.90;4.13;;;;;;;21.54;41.92;100543.28;5021634;28;20057;-77
2024/03/15 11:43:04;;;;;;;4.93;3.10;;;;;;;21.50;41.59;100541.16;4999917;28;20156;-76
2024/03/15 11:46:08;;;;;;;4.35;2.20;;;;;;;21.53;41.51;100535.31;4987883;28;20110;-76
2024/03/15 11:49:13;;;;;;;7.88;3.50;;;;;;;21.44;42.57;100536.47;4999646;28;20057;-75
2024/03/15 11:52:17;;;;;;;7.95;3.40;;;;;;;21.34;42.12;100525.91;5014578;28;20049;-79
2024/03/15 11:55:22;;;;;;;4.05;2.22;;;;;;;21.45;41.67;100524.53;5018762;28;20113;-78
2024/03/15 11:58:26;;;;;;;5.15;2.78;;;;;;;21.45;43.02;100524.53;5019103;28;20049;-77
2024/03/15 12:01:31;;;;;;;7.43;3.60;;;;;;;21.30;43.91;100508.25;5009332;28;20515;-79
2024/03/15 12:04:36;;;;;;;5.82;3.15;;;;;;;20.94;44.23;100513.81;4999768;28;20049;-77
2024/03/15 12:07:43;;;;;;;6.15;3.05;;;;;;;21.13;43.79;100513.16;4998585;28;20053;-77
2024/03/15 12:10:49;;;;;;;6.38;3.03;;;;;;;21.07;43.80;100511.25;4999261;28;20494;-77
2024/03/15 12:13:57;;;;;;;5.40;2.90;;;;;;;20.95;43.88;100504.63;5010281;28;20053;-79
2024/03/15 12:17:02;;;;;;;6.70;3.25;;;;;;;21.01;43.84;100494.78;5018473;28;20049;-78
2024/03/15 12:20:10;;;;;;;4.95;2.78;;;;;;;20.95;44.45;100496.41;5019372;28;20405;-77
2024/03/15 12:23:17;;;;;;;7.63;3.35;;;;;;;20.75;44.90;100498.13;5019258;28;20049;-81
2024/03/15 12:26:23;;;;;;;7.43;3.65;;;;;;;20.63;45.49;100488.81;5018520;28;20195;-76
2024/03/15 12:29:28;;;;;;;8.85;3.50;;;;;;;20.56;45.73;100487.91;5007200;28;20409;-78
2024/03/15 12:32:33;;;;;;;6.43;3.67;;;;;;;20.60;46.62;100483.72;5015622;28;20515;-79
2024/03/15 12:35:39;;;;;;;8.50;4.38;;;;;;;20.87;46.18;100491.09;5015416;28;20397;-79
2024/03/15 12:38:46;;;;;;;9.82;3.92;;;;;;;21.09;46.18;100476.41;5016066;28;20073;-78
2024/03/15 12:41:55;;;;;;;9.85;4.32;;;;;;;21.20;46.75;100475.84;5014276;28;20053;-78
2024/03/15 12:45:00;;;;;;;9.18;4.13;;;;;;;21.15;46.87;100475.59;5015855;28;20045;-81
2024/03/15 12:48:04;;;;;;;8.13;4.30;;;;;;;21.01;47.85;100472.97;5014758;28;20053;-79
2024/03/15 12:51:09;;;;;;;6.78;4.30;;;;;;;20.83;48.20;100461.69;5012061;28;20072;-78
2024/03/15 12:54:14;;;;;;;7.15;3.90;;;;;;;20.77;48.00;100464.16;5013450;28;20508;-81
2024/03/15 12:57:19;;;;;;;7.00;3.78;;;;;;;20.94;47.60;100459.25;5012853;28;20053;-80
2024/03/15 13:00:28;;;;;;;8.45;3.70;;;;;;;20.96;47.49;100459.88;5013336;28;20061;-78
2024/03/15 13:03:33;;;;;;;8.93;3.95;;;;;;;20.82;48.54;100460.84;5001685;28;20409;-79
2024/03/15 13:06:37;;;;;;;6.20;3.35;;;;;;;20.76;48.24;100450.72;5014223;28;20076;-79
2024/03/15 13:09:41;;;;;;;6.25;3.17;;;;;;;20.98;47.26;100454.25;5014626;28;20053;-79
2024/03/15 13:12:50;;;;;;;5.25;3.15;;;;;;;21.06;47.39;100451.41;5006643;28;20540;-78
2024/03/15 13:15:56;;;;;;;5.68;3.45;;;;;;;21.18;46.75;100447.06;5024416;28;20061;-77
2024/03/15 13:19:05;;;;;;;7.53;3.75;;;;;;;21.08;47.01;100441.97;5017845;28;20048;-82
2024/03/15 13:22:11;;;;;;;9.40;3.55;;;;;;;21.25;47.25;100447.94;5016218;28;20077;-79
2024/03/15 13:25:16;;;;;;;6.43;3.55;;;;;;;20.43;49.08;100445.00;5015869;28;20118;-79
2024/03/15 13:28:21;;;;;;;7.65;3.15;;;;;;;20.51;49.06;100446.72;5015708;28;20057;-78
2024/03/15 13:31:25;;;;;;;4.85;2.63;;;;;;;21.07;48.21;100448.47;5004654;28;20045;-78
2024/03/15 13:34:30;;;;;;;7.47;3.40;;;;;;;20.73;48.36;100448.38;5003798;28;20057;-77
2024/03/15 13:37:35;;;;;;;6.38;3.33;;;;;;;20.67;48.54;100454.63;5015691;28;20492;-76
2024/03/15 13:40:39;;;;;;;6.97;3.40;;;;;;;20.20;49.76;100457.06;5003971;28;20076;-77
2024/03/15 13:43:44;;;;;;;6.38;2.70;;;;;;;21.00;48.12;100457.63;5014783;28;20052;-77
2024/03/15 13:46:50;;;;;;;6.75;3.08;;;;;;;21.11;47.86;100446.19;5021161;28;20052;-77
2024/03/15 13:49:57;;;;;;;5.47;2.80;;;;;;;21.20;47.64;100448.56;5012802;28;20052;-77
2024/03/15 13:53:08;;;;;;;6.78;2.92;;;;;;;21.27;47.13;100446.69;5000646;28;20064;-77
2024/03/15 13:56:13;;;;;;;6.80;3.08;;;;;;;20.67;49.04;100444.56;5014736;28;20069;-78
2024/03/15 13:59:18;;;;;;;7.80;3.15;;;;;;;20.82;48.90;100439.00;5014984;28;20402;-78
2024/03/15 14:02:22;;;;;;;8.32;2.60;;;;;;;20.93;48.35;100441.19;5009299;28;20050;-79
2024/03/15 14:05:27;;;;;;;7.57;3.30;;;;;;;20.57;48.95;100441.31;4994966;28;20057;-78
2024/03/15 14:08:32;;;;;;;9.18;2.70;;;;;;;20.90;48.07;100436.13;4999677;28;20057;-77
2024/03/15 14:11:37;;;;;;;9.27;2.88;;;;;;;21.12;47.46;100429.59;5010866;28;20052;-76
2024/03/15 14:14:41;;;;;;;7.45;3.05;;;;;;;21.10;47.38;100434.41;5000291;28;20064;-76
2024/03/15 14:17:50;;;;;;;5.50;2.90;;;;;;;20.96;48.19;100429.84;5013693;28;20057;-77
2024/03/15 14:20:55;;;;;;;6.70;2.78;;;;;;;21.26;47.76;100431.34;5014057;28;20053;-79
2024/03/15 14:23:59;;;;;;;5.63;2.80;;;;;;;21.12;47.86;100428.75;5001546;28;20049;-78
2024/03/15 14:27:03;;;;;;;8.80;3.45;;;;;;;21.06;47.83;100424.09;5013253;28;20057;-79